METAR Data
IDs: Format: Raw Decoded Include TAF

Data at: 2023 UTC 19 May 2019

KIOW 191952Z AUTO 28016G23KT 10SM OVC021 17/12 A2971 RMK AO2 PK WND 27027/1908 SLP058 T01670122 $
KIOW 191852Z AUTO 27018G26KT 10SM SCT019 OVC027 17/13 A2968 RMK AO2 PK WND 27027/1826 SLP048 T01720128 $
KIOW 191752Z AUTO 29013G21KT 10SM OVC018 17/13 A2967 RMK AO2 SLP044 60011 T01670133 10172 20150 51029 $
KIOW 191652Z AUTO 27015G22KT 10SM OVC016 16/13 A2965 RMK AO2 RAE1557 SLP039 P0000 T01610133 $
KIOW 191609Z AUTO 28010KT 10SM BKN015 BKN047 OVC060 16/13 A2963 RMK AO2 RAE1557 P0000 T01610133 $
KIOW 191552Z AUTO 27011KT 10SM -RA FEW017 BKN050 OVC060 16/13 A2962 RMK AO2 RAB38 SLP029 P0000 T01560133 $
KIOW 191537Z AUTO 28014KT 10SM SCT013 BKN050 OVC060 16/13 A2961 RMK AO2 T01560133 $
KIOW 191509Z AUTO 10SM BKN014 BKN055 OVC100 16/14 A2960 RMK AO2 T01610144 $
KIOW 191452Z AUTO 29010KT 10SM FEW014 BKN065 BKN090 17/15 A2958 RMK AO2 RAE36 SLP015 P0006 60011 T01670150 53013 $
KIOW 191403Z AUTO 25010KT 8SM -RA FEW014 BKN040 OVC095 16/14 A2958 RMK AO2 LTG DSNT SE P0001 T01560144 $
KIOW 191352Z AUTO 24010KT 6SM -RA BR SCT012 BKN025 OVC080 16/14 A2958 RMK AO2 LTG DSNT SE RAB28 SLP014 P0005 T01560144 $
KIOW 191342Z AUTO 23009KT 5SM RA BR SCT010 BKN014 OVC080 16/14 A2957 RMK AO2 LTG DSNT SE AND S RAB28 P0004 T01560144 $
KIOW 191259Z AUTO 24010KT 10SM BKN009 OVC050 17/16 A2954 RMK AO2 CIG 007V013 T01670156 $
KIOW 191252Z AUTO 22006KT 10SM SCT009 OVC049 17/16 A2954 RMK AO2 LTG DSNT SW SLP002 T01670156 $
KIOW 191249Z AUTO 22005KT 10SM SCT009 OVC049 17/16 A2954 RMK AO2 LTG DSNT SW $
KIOW 191202Z AUTO 20007KT 10SM SCT011 BKN048 OVC100 17/16 A2955 RMK AO2 T01670156 $
KIOW 191152Z AUTO 19007KT 10SM BKN011 BKN100 17/15 A2955 RMK AO2 SLP004 60003 70130 T01670150 10189 20161 53001 $
KIOW 191116Z AUTO 18007KT 10SM BKN012 BKN019 OVC095 16/15 A2955 RMK AO2 T01610150 $
KIOW 191108Z AUTO 18007KT 10SM SCT014 BKN019 OVC100 16/15 A2955 RMK AO2 T01610150 $
KIOW 191052Z AUTO 19004KT 10SM FEW019 BKN100 OVC120 16/15 A2954 RMK AO2 WSHFT 0959 LTG DSNT W RAB05E32 SLP001 P0003 T01610150 $
KIOW 191028Z AUTO 27009KT 9SM -RA SCT011 BKN040 OVC110 16/15 A2953 RMK AO2 WSHFT 0959 RAB05 P0003 T01610150 $
KIOW 191013Z AUTO 26011KT 6SM -RA BR BKN011 OVC090 17/16 A2954 RMK AO2 WSHFT 0959 RAB05 P0001 T01720156 $
KIOW 191003Z AUTO 20010G19KT 10SM VCTS OVC011 18/16 A2955 RMK AO2 T01780161 $
KIOW 190952Z AUTO 19012KT 10SM OVC013 18/16 A2955 RMK AO2 LTG DSNT S SLP002 T01780161 $
KIOW 190949Z AUTO 19011KT 10SM OVC013 18/16 A2955 RMK AO2 LTG DSNT S $
KIOW 190852Z AUTO 19008KT 10SM OVC016 18/16 A2954 RMK AO2 SLP998 T01780161 55006 $
KIOW 190752Z AUTO 21010G18KT 10SM BKN018 OVC023 18/17 A2954 RMK AO2 SLP997 T01830167 $
KIOW 190652Z AUTO 19012G17KT 10SM OVC018 18/17 A2954 RMK AO2 CIG 012V022 SLP000 T01830167 $
KIOW 190617Z AUTO 19013KT 10SM BKN015 OVC021 18/17 A2955 RMK AO2 T01830167 $
KIOW 190602Z AUTO 20014G23KT 10SM BKN014 19/17 A2956 RMK AO2 T01890172 $
KIOW 190552Z AUTO 20013G20KT 10SM BKN016 19/17 A2956 RMK AO2 SLP005 60057 T01890172 10194 20172 402440100 55015 $
KIOW 190452Z AUTO 15005KT 10SM OVC110 19/17 A2955 RMK AO2 RAE02 SLP003 P0000 T01890172 $
KIOW 190418Z AUTO 07005KT 10SM SCT018 OVC110 18/17 A2954 RMK AO2 RAE02 PRESFR P0000 T01780172 $
KIOW 190405Z AUTO 06004KT 10SM BKN019 BKN055 OVC110 18/17 A2956 RMK AO2 RAE02 P0000 T01780172 $
KIOW 190352Z AUTO 00000KT 10SM -RA FEW020 BKN070 OVC080 18/17 A2959 RMK AO2 RAE18B41 SLP016 P0001 T01780167 $
KIOW 190252Z AUTO 07007KT 4SM RA BR FEW028 BKN046 OVC110 17/17 A2960 RMK AO2 SLP022 P0025 60056 T01720167 56010 $
KIOW 190152Z AUTO 00000KT 3SM RA BR SCT037 BKN044 OVC100 18/17 A2963 RMK AO2 LTG DSNT N AND E RAB00 TSE0057 SLP031 P0009 T01780167 $
KIOW 190119Z AUTO VRB03KT 10SM -RA BKN040 OVC060 18/16 A2963 RMK AO2 LTG DSNT N RAB00 TSE0057 P0001 T01830161 $
KIOW 190103Z AUTO 24012KT 10SM VCTS -RA FEW037 OVC060 18/16 A2964 RMK AO2 LTG DSNT W-N RAB00 TSE0057 PRESRR P0000 T01830156 $
KIOW 190052Z AUTO 06006KT 10SM TS OVC055 18/16 A2959 RMK AO2 LTG DSNT W-N RAE45 TSE05B13 SLP018 P0022 T01780161 $
KIOW 190019Z AUTO 09006G22KT 4SM +TSRA FEW042 BKN070 OVC090 18/16 A2963 RMK AO2 LTG DSNT ALQDS TSE05B13 P0016 T01830156 $
KIOW 190011Z AUTO 13013G25KT 3SM VCTS +RA FEW050 BKN080 OVC095 18/16 A2964 RMK AO2 LTG DSNT ALQDS TSE05 P0008 T01830156 $
KIOW 182352Z AUTO 16011G22KT 4SM TSRA FEW060 BKN100 OVC110 19/16 A2963 RMK AO2 LTG DSNT ALQDS TSB39 SLP032 P0009 60012 T01890161 10244 20189 56014 $
KIOW 182345Z AUTO 16014G25KT 5SM +TSRA FEW065 FEW080 OVC100 19/16 A2962 RMK AO2 LTG DSNT ALQDS TSB39 P0006 T01890161 $
KIOW 182324Z AUTO 16009KT 10SM VCTS -RA SCT045 BKN080 OVC100 20/17 A2963 RMK AO2 LTG DSNT ALQDS P0002 T02000172 $
KIOW 182311Z AUTO 17010KT 10SM -RA FEW021 BKN039 OVC060 20/18 A2964 RMK AO2 LTG DSNT ALQDS P0001 T02000178 $
KIOW 182252Z AUTO 18014G25KT 7SM VCTS -RA FEW021 BKN034 OVC090 21/19 A2964 RMK AO2 LTG DSNT ALQDS RAB32 TSB35E50 SLP036 P0003 T02110189 $
KIOW 182241Z AUTO 16015KT 6SM TSRA BR FEW025 BKN039 OVC090 22/19 A2964 RMK AO2 LTG DSNT ALQDS RAB32 TSB35 P0002 T02170194 $
KIOW 182152Z AUTO 15010KT 10SM FEW022 BKN044 23/19 A2964 RMK AO2 PRESFR SLP037 T02330194 $
KIOW 182142Z AUTO 16010KT 10SM SCT022 SCT035 OVC044 23/19 A2966 RMK AO2 T02280194 $
KIOW 182052Z AUTO 17011KT 10SM BKN026 OVC030 23/19 A2967 RMK AO2 PK WND 14027/1957 SLP046 T02330194 50008 $
KIOW 182043Z AUTO 17012G22KT 10SM SCT022 OVC030 23/19 A2967 RMK AO2 PK WND 14027/1957 T02330194 $
KIOW 181959Z AUTO 16013G27KT 10SM BKN023 BKN028 23/19 A2968 RMK AO2 PK WND 14027/1957 T02330189 $
KIOW 181952Z AUTO 14014G21KT 10SM SCT021 SCT026 24/19 A2967 RMK AO2 SLP047 T02390194 $
KIOW 181947Z AUTO 16014KT 10SM SCT021 SCT026 24/19 A2967 RMK AO2
KIOW 181938Z AUTO 15014G20KT 10SM SCT020 BKN025 24/19 A2967 RMK AO2 T02390194
KIOW 181852Z AUTO 15010KT 10SM FEW015 23/19 A2965 RMK AO2 SLP037 T02280194 $
KIOW 181821Z AUTO 17011KT 10SM SCT013 22/19 A2965 RMK AO2 T02170189 $
KIOW 181752Z AUTO 16014G22KT 10SM BKN011 22/19 A2966 RMK AO2 SLP042 60058 T02170189 10217 20111 56025 $
KIOW 181720Z AUTO 17015G23KT 10SM BKN011 21/18 A2968 RMK AO2 T02060183 $
KIOW 181652Z AUTO 14012KT 10SM CLR 21/18 A2967 RMK AO2 SLP047 T02060183 $
KIOW 181552Z AUTO 13007KT 10SM FEW043 18/17 A2971 RMK AO2 RAE15B27E38 SLP058 P0002 T01830172 $
KIOW 181515Z AUTO 00000KT 6SM BR FEW003 FEW095 BKN120 16/16 A2973 RMK AO2 RAE15 P0001 T01610156 $
KIOW 181452Z AUTO 11003KT 5SM -RA BR OVC110 15/14 A2974 RMK AO2 LTG DSNT S SLP069 P0005 60056 T01500144 51006 $
KIOW 181352Z AUTO 12005KT 7SM -RA SCT040 BKN050 OVC100 14/13 A2974 RMK AO2 LTG DSNT ALQDS RAB1256 TSB1258E33 SLP069 P0051 T01390128 $
KIOW 181350Z AUTO 12004KT 7SM -RA SCT040 BKN050 OVC110 14/13 A2974 RMK AO2 LTG DSNT ALQDS RAB1256 TSB1258E33 P0051 $
KIOW 181339Z AUTO 13004KT 9SM VCTS -RA BKN040 OVC050 13/13 A2974 RMK AO2 LTG DSNT ALQDS RAB1256 TSB1258E33 P0050 T01330128 $
KIOW 181318Z AUTO 12006KT 3SM -TSRA BR SCT018 OVC042 13/12 A2974 RMK AO2 LTG DSNT N AND S AND W RAB1256 TSB1258 P0050 T01280117 $
KIOW 181314Z AUTO VRB04KT 1 1/4SM TSRA BR SCT018 SCT030 OVC042 13/12 A2974 RMK AO2 VIS 1/2V5 LTG DSNT ALQDS RAB1256 TSB1258 P0050 T01280117 $
KIOW 181307Z AUTO 00000KT 1/2SM +TSRA FG SCT014 BKN040 OVC070 12/12 A2972 RMK AO2 LTG DSNT ALQDS RAB1256 TSB1258 P0047 T01220117 $
KIOW 181259Z AUTO 16006KT 1 1/2SM -TSRA BR FEW016 BKN042 BKN050 13/11 A2974 RMK AO2 LTG DSNT ALQDS RAB56 TSB58 PRESRR P0015 T01330111 $
KIOW 181252Z AUTO 11004KT 10SM VCTS SCT043 BKN050 BKN070 13/11 A2972 RMK AO2 LTG DSNT S-W SLP063 T01330106 $
KIOW 181249Z AUTO 10005KT 10SM VCTS FEW043 BKN055 BKN070 13/11 A2971 RMK AO2 LTG DSNT ALQDS $
KIOW 181152Z AUTO 09005KT 10SM OVC060 11/09 A2974 RMK AO2 SLP069 70058 T01110089 10122 20100 58012 $
KIOW 181052Z AUTO 09005KT 10SM FEW070 10/08 A2976 RMK AO2 SLP078 T01000078 $
KIOW 180952Z AUTO 09006KT 10SM BKN075 10/07 A2978 RMK AO2 SLP084 T01000072 $
KIOW 180852Z AUTO 10009KT 10SM CLR 10/07 A2977 RMK AO2 SLP081 T01000072 58009 $